Pagrindinis puslapis
METAR-TAF:

METAR-TAF

Oro uostai :

Voronežas, Rusija

platuma: 51-39N, ilguma: 039-15E, Aukštis: 154 m

Dabartinis oras

Ataskaita buvo paskelbta 30 minutes, ne 06:30 UTC
Vėjas 6 kt iš Šiaurės/Šiaurės Vakarų
Temperatūra 0°C
Drėgmė 100%
Slėgis 997 hPa
Matomumas: 1000 m
Apsiniaukę ne aukštis 400 ft
sniegas

METAR: UUOO 280630Z 34003MPS 1200 1000NW R30/1500D SN OVC004 00/00 Q0997 R30/650248 TEMPO 0700 +SN VV002 RMK QFE735

Laikas: 10:00 (07:00 UTC)

Prognozė

Ataskaita buvo paskelbta 1 valandą ir 30 minutes, ne 05:30 UTC
Prognozė galioja nuo 28 metu 06 UTC su 28 metu 15 UTC
Vėjas 6 kt iš Šiaurės/Šiaurės Vakarų
Matomumas: 1100 m
Su prošvaistėmis ne aukštis 300 ft
Su prošvaistėmis ne aukštis 1500 ft, Liūtiniai kamuoliniai debesys.
sniegas
Tapsmas
nuo 28 metu 09 UTC su 28 metu 11 UTC
Matomumas: 3100 m
Su prošvaistėmis ne aukštis 1100 ft
Su prošvaistėmis ne aukštis 2000 ft, Liūtiniai kamuoliniai debesys.
sniegas

TAF: UUOO 280530Z 2806/2815 34003MPS 1100 SHSN BKN003 BKN015CB BECMG 2809/2811 3100 -SHSN BKN011 BKN020CB

Orai ataskaitas ir orų prognozės (METAR, TAF).

turimą stotys yra geltonos ir raudonos taškus žemėlapyje.

Perkelti pele per norėdami pamatyti stoties vardą.

Tada spustelėkite, norėdami matyti oro stebėjimo ir prognozės.

Norėdami pakeisti žemėlapį: spustelėkite ant žalios mygtukų su juodo kryžiaus žemyn,; žalią mygtuką su brūkšneliu, jei norite nutolinti; arba žalių rodyklių gretimoms žemėlapius.


METAR-TAF: